sensor_id;sensor_type;location;lat;lon;timestamp;P1;durP1;ratioP1;P2;durP2;ratioP2
56075;SDS011;41951;49.022;12.066;2023-12-29T00:00:30;10.85;;;6.20;;
56075;SDS011;41951;49.022;12.066;2023-12-29T00:02:55;8.80;;;5.50;;
56075;SDS011;41951;49.022;12.066;2023-12-29T00:05:21;8.55;;;5.65;;
56075;SDS011;41951;49.022;12.066;2023-12-29T00:07:46;9.52;;;5.80;;
56075;SDS011;41951;49.022;12.066;2023-12-29T00:10:12;8.68;;;5.57;;
56075;SDS011;41951;49.022;12.066;2023-12-29T00:12:37;10.88;;;5.72;;
56075;SDS011;41951;49.022;12.066;2023-12-29T00:15:03;9.63;;;6.13;;
56075;SDS011;41951;49.022;12.066;2023-12-29T00:17:29;10.40;;;6.55;;
56075;SDS011;41951;49.022;12.066;2023-12-29T00:19:54;11.75;;;5.55;;
56075;SDS011;41951;49.022;12.066;2023-12-29T00:22:20;9.23;;;5.82;;
56075;SDS011;41951;49.022;12.066;2023-12-29T00:24:46;10.25;;;6.50;;
56075;SDS011;41951;49.022;12.066;2023-12-29T00:27:12;10.20;;;5.97;;
56075;SDS011;41951;49.022;12.066;2023-12-29T00:29:38;11.68;;;6.50;;
56075;SDS011;41951;49.022;12.066;2023-12-29T00:32:04;13.05;;;6.57;;
56075;SDS011;41951;49.022;12.066;2023-12-29T00:34:30;11.80;;;6.43;;
56075;SDS011;41951;49.022;12.066;2023-12-29T00:36:56;11.98;;;6.85;;
56075;SDS011;41951;49.022;12.066;2023-12-29T00:39:21;11.30;;;5.72;;
56075;SDS011;41951;49.022;12.066;2023-12-29T00:41:55;9.88;;;5.57;;
56075;SDS011;41951;49.022;12.066;2023-12-29T00:44:23;12.23;;;6.10;;
56075;SDS011;41951;49.022;12.066;2023-12-29T00:46:49;9.98;;;5.80;;
56075;SDS011;41951;49.022;12.066;2023-12-29T00:49:15;11.05;;;5.80;;
56075;SDS011;41951;49.022;12.066;2023-12-29T00:51:40;9.25;;;6.30;;
56075;SDS011;41951;49.022;12.066;2023-12-29T00:54:06;10.13;;;5.97;;
56075;SDS011;41951;49.022;12.066;2023-12-29T00:56:32;9.93;;;6.30;;
56075;SDS011;41951;49.022;12.066;2023-12-29T00:58:58;12.27;;;6.40;;
56075;SDS011;41951;49.022;12.066;2023-12-29T01:01:23;12.25;;;6.88;;
56075;SDS011;41951;49.022;12.066;2023-12-29T01:03:49;10.48;;;6.40;;
56075;SDS011;41951;49.022;12.066;2023-12-29T01:06:14;12.68;;;6.97;;
56075;SDS011;41951;49.022;12.066;2023-12-29T01:08:40;11.00;;;6.70;;
56075;SDS011;41951;49.022;12.066;2023-12-29T01:11:06;11.32;;;6.57;;
56075;SDS011;41951;49.022;12.066;2023-12-29T01:13:31;10.23;;;6.38;;
56075;SDS011;41951;49.022;12.066;2023-12-29T01:15:57;9.30;;;6.55;;
56075;SDS011;41951;49.022;12.066;2023-12-29T01:18:22;12.13;;;7.05;;
56075;SDS011;41951;49.022;12.066;2023-12-29T01:20:48;9.80;;;6.30;;
56075;SDS011;41951;49.022;12.066;2023-12-29T01:23:13;11.80;;;7.38;;
56075;SDS011;41951;49.022;12.066;2023-12-29T01:25:39;12.80;;;6.85;;
56075;SDS011;41951;49.022;12.066;2023-12-29T01:28:04;11.52;;;7.20;;
56075;SDS011;41951;49.022;12.066;2023-12-29T01:30:30;9.52;;;6.32;;
56075;SDS011;41951;49.022;12.066;2023-12-29T01:32:56;12.45;;;7.13;;
56075;SDS011;41951;49.022;12.066;2023-12-29T01:35:21;10.10;;;6.07;;
56075;SDS011;41951;49.022;12.066;2023-12-29T01:37:47;12.20;;;6.80;;
56075;SDS011;41951;49.022;12.066;2023-12-29T01:40:12;9.82;;;7.30;;
56075;SDS011;41951;49.022;12.066;2023-12-29T01:42:38;11.68;;;6.65;;
56075;SDS011;41951;49.022;12.066;2023-12-29T01:45:04;10.73;;;6.28;;
56075;SDS011;41951;49.022;12.066;2023-12-29T01:47:31;10.75;;;6.20;;
56075;SDS011;41951;49.022;12.066;2023-12-29T01:49:57;11.48;;;6.85;;
56075;SDS011;41951;49.022;12.066;2023-12-29T01:52:23;10.35;;;6.47;;
56075;SDS011;41951;49.022;12.066;2023-12-29T01:54:50;9.52;;;6.35;;
56075;SDS011;41951;49.022;12.066;2023-12-29T01:57:17;10.68;;;6.75;;
56075;SDS011;41951;49.022;12.066;2023-12-29T01:59:45;10.98;;;6.63;;
56075;SDS011;41951;49.022;12.066;2023-12-29T02:02:11;10.35;;;6.85;;
56075;SDS011;41951;49.022;12.066;2023-12-29T02:04:37;12.40;;;7.07;;
56075;SDS011;41951;49.022;12.066;2023-12-29T02:07:05;11.68;;;6.55;;
56075;SDS011;41951;49.022;12.066;2023-12-29T02:09:30;10.63;;;6.20;;
56075;SDS011;41951;49.022;12.066;2023-12-29T02:11:58;11.88;;;6.60;;
56075;SDS011;41951;49.022;12.066;2023-12-29T02:14:24;11.88;;;6.72;;
56075;SDS011;41951;49.022;12.066;2023-12-29T02:16:52;11.20;;;6.80;;
56075;SDS011;41951;49.022;12.066;2023-12-29T02:19:45;10.90;;;6.43;;
56075;SDS011;41951;49.022;12.066;2023-12-29T02:22:14;10.52;;;6.70;;
56075;SDS011;41951;49.022;12.066;2023-12-29T02:24:43;10.50;;;6.25;;
56075;SDS011;41951;49.022;12.066;2023-12-29T02:32:47;11.13;;;6.60;;
56075;SDS011;41951;49.022;12.066;2023-12-29T02:35:14;10.43;;;6.15;;
56075;SDS011;41951;49.022;12.066;2023-12-29T02:37:48;10.57;;;6.53;;
56075;SDS011;41951;49.022;12.066;2023-12-29T02:40:14;11.90;;;6.85;;
56075;SDS011;41951;49.022;12.066;2023-12-29T02:42:44;10.05;;;6.57;;
56075;SDS011;41951;49.022;12.066;2023-12-29T02:45:11;11.65;;;6.78;;
56075;SDS011;41951;49.022;12.066;2023-12-29T02:47:36;13.02;;;7.28;;
56075;SDS011;41951;49.022;12.066;2023-12-29T02:50:02;11.80;;;6.97;;
56075;SDS011;41951;49.022;12.066;2023-12-29T02:52:28;10.93;;;6.60;;
56075;SDS011;41951;49.022;12.066;2023-12-29T02:54:53;11.60;;;6.65;;
56075;SDS011;41951;49.022;12.066;2023-12-29T02:57:19;10.00;;;6.28;;
56075;SDS011;41951;49.022;12.066;2023-12-29T02:59:45;13.18;;;6.90;;
56075;SDS011;41951;49.022;12.066;2023-12-29T03:02:10;10.40;;;6.82;;
56075;SDS011;41951;49.022;12.066;2023-12-29T03:04:36;11.82;;;7.68;;
56075;SDS011;41951;49.022;12.066;2023-12-29T03:07:01;11.13;;;7.22;;
56075;SDS011;41951;49.022;12.066;2023-12-29T03:09:27;12.23;;;7.05;;
56075;SDS011;41951;49.022;12.066;2023-12-29T03:11:52;11.45;;;6.97;;
56075;SDS011;41951;49.022;12.066;2023-12-29T03:14:18;11.95;;;7.32;;
56075;SDS011;41951;49.022;12.066;2023-12-29T03:16:43;10.07;;;6.82;;
56075;SDS011;41951;49.022;12.066;2023-12-29T03:19:09;11.43;;;7.53;;
56075;SDS011;41951;49.022;12.066;2023-12-29T03:21:34;10.02;;;6.90;;
56075;SDS011;41951;49.022;12.066;2023-12-29T03:24:00;13.02;;;6.80;;
56075;SDS011;41951;49.022;12.066;2023-12-29T03:26:26;11.73;;;6.50;;
56075;SDS011;41951;49.022;12.066;2023-12-29T03:28:51;10.05;;;6.55;;
56075;SDS011;41951;49.022;12.066;2023-12-29T03:31:17;11.85;;;7.10;;
56075;SDS011;41951;49.022;12.066;2023-12-29T03:33:42;11.18;;;6.90;;
56075;SDS011;41951;49.022;12.066;2023-12-29T03:36:08;11.02;;;6.85;;
56075;SDS011;41951;49.022;12.066;2023-12-29T03:38:34;11.45;;;6.95;;
56075;SDS011;41951;49.022;12.066;2023-12-29T03:41:01;9.15;;;6.45;;
56075;SDS011;41951;49.022;12.066;2023-12-29T03:43:27;10.90;;;6.45;;
56075;SDS011;41951;49.022;12.066;2023-12-29T03:45:53;11.55;;;6.55;;
56075;SDS011;41951;49.022;12.066;2023-12-29T03:48:18;10.65;;;6.60;;
56075;SDS011;41951;49.022;12.066;2023-12-29T03:50:44;9.20;;;6.50;;
56075;SDS011;41951;49.022;12.066;2023-12-29T03:53:09;10.27;;;6.50;;
56075;SDS011;41951;49.022;12.066;2023-12-29T03:55:35;11.60;;;6.55;;
56075;SDS011;41951;49.022;12.066;2023-12-29T03:58:02;12.07;;;6.97;;
56075;SDS011;41951;49.022;12.066;2023-12-29T04:00:27;10.65;;;6.60;;
56075;SDS011;41951;49.022;12.066;2023-12-29T04:02:53;9.98;;;6.90;;
56075;SDS011;41951;49.022;12.066;2023-12-29T04:05:19;11.38;;;6.18;;
56075;SDS011;41951;49.022;12.066;2023-12-29T04:07:44;11.27;;;6.55;;
56075;SDS011;41951;49.022;12.066;2023-12-29T04:10:10;11.95;;;7.28;;
56075;SDS011;41951;49.022;12.066;2023-12-29T04:12:36;12.57;;;6.40;;
56075;SDS011;41951;49.022;12.066;2023-12-29T04:15:02;11.07;;;6.25;;
56075;SDS011;41951;49.022;12.066;2023-12-29T04:17:29;9.73;;;5.97;;
56075;SDS011;41951;49.022;12.066;2023-12-29T04:19:54;9.63;;;5.90;;
56075;SDS011;41951;49.022;12.066;2023-12-29T04:22:20;11.85;;;5.70;;
56075;SDS011;41951;49.022;12.066;2023-12-29T04:24:46;8.00;;;4.15;;
56075;SDS011;41951;49.022;12.066;2023-12-29T04:27:13;8.25;;;5.28;;
56075;SDS011;41951;49.022;12.066;2023-12-29T04:29:39;10.05;;;5.68;;
56075;SDS011;41951;49.022;12.066;2023-12-29T04:32:05;6.78;;;3.92;;
56075;SDS011;41951;49.022;12.066;2023-12-29T04:34:31;6.20;;;3.88;;
56075;SDS011;41951;49.022;12.066;2023-12-29T04:36:56;6.43;;;3.80;;
56075;SDS011;41951;49.022;12.066;2023-12-29T04:39:22;5.57;;;3.45;;
56075;SDS011;41951;49.022;12.066;2023-12-29T04:41:48;6.40;;;3.33;;
56075;SDS011;41951;49.022;12.066;2023-12-29T04:44:13;5.15;;;3.30;;
56075;SDS011;41951;49.022;12.066;2023-12-29T04:46:39;6.25;;;3.80;;
56075;SDS011;41951;49.022;12.066;2023-12-29T04:49:04;6.43;;;3.60;;
56075;SDS011;41951;49.022;12.066;2023-12-29T04:51:30;6.18;;;3.58;;
56075;SDS011;41951;49.022;12.066;2023-12-29T04:53:55;6.18;;;3.60;;
56075;SDS011;41951;49.022;12.066;2023-12-29T04:56:21;5.90;;;3.75;;
56075;SDS011;41951;49.022;12.066;2023-12-29T04:58:46;6.53;;;3.63;;
56075;SDS011;41951;49.022;12.066;2023-12-29T05:01:12;9.27;;;3.58;;
56075;SDS011;41951;49.022;12.066;2023-12-29T05:03:38;6.40;;;3.30;;
56075;SDS011;41951;49.022;12.066;2023-12-29T05:06:03;5.97;;;3.30;;
56075;SDS011;41951;49.022;12.066;2023-12-29T05:08:29;7.85;;;4.00;;
56075;SDS011;41951;49.022;12.066;2023-12-29T05:10:54;6.90;;;4.10;;
56075;SDS011;41951;49.022;12.066;2023-12-29T05:13:20;6.70;;;3.97;;
56075;SDS011;41951;49.022;12.066;2023-12-29T05:15:46;6.53;;;3.83;;
56075;SDS011;41951;49.022;12.066;2023-12-29T05:18:11;7.10;;;3.60;;
56075;SDS011;41951;49.022;12.066;2023-12-29T05:20:37;6.40;;;3.78;;
56075;SDS011;41951;49.022;12.066;2023-12-29T05:23:03;7.30;;;4.28;;
56075;SDS011;41951;49.022;12.066;2023-12-29T05:25:28;7.22;;;3.97;;
56075;SDS011;41951;49.022;12.066;2023-12-29T05:27:54;7.35;;;3.53;;
56075;SDS011;41951;49.022;12.066;2023-12-29T05:30:19;7.32;;;3.83;;
56075;SDS011;41951;49.022;12.066;2023-12-29T05:32:45;6.32;;;3.58;;
56075;SDS011;41951;49.022;12.066;2023-12-29T05:35:10;6.38;;;3.90;;
56075;SDS011;41951;49.022;12.066;2023-12-29T05:37:36;7.30;;;3.75;;
56075;SDS011;41951;49.022;12.066;2023-12-29T05:40:02;7.22;;;3.80;;
56075;SDS011;41951;49.022;12.066;2023-12-29T05:42:29;7.38;;;3.85;;
56075;SDS011;41951;49.022;12.066;2023-12-29T05:44:55;7.75;;;4.40;;
56075;SDS011;41951;49.022;12.066;2023-12-29T05:47:20;6.88;;;3.72;;
56075;SDS011;41951;49.022;12.066;2023-12-29T05:49:46;7.35;;;4.32;;
56075;SDS011;41951;49.022;12.066;2023-12-29T05:52:12;7.18;;;4.28;;
56075;SDS011;41951;49.022;12.066;2023-12-29T05:54:37;7.95;;;3.80;;
56075;SDS011;41951;49.022;12.066;2023-12-29T05:57:03;10.55;;;3.80;;
56075;SDS011;41951;49.022;12.066;2023-12-29T05:59:29;7.45;;;3.65;;
56075;SDS011;41951;49.022;12.066;2023-12-29T06:01:54;6.50;;;3.63;;
56075;SDS011;41951;49.022;12.066;2023-12-29T06:04:21;6.20;;;3.97;;
56075;SDS011;41951;49.022;12.066;2023-12-29T06:06:46;8.20;;;4.20;;
56075;SDS011;41951;49.022;12.066;2023-12-29T06:09:15;8.90;;;4.28;;
56075;SDS011;41951;49.022;12.066;2023-12-29T06:11:40;7.15;;;3.97;;
56075;SDS011;41951;49.022;12.066;2023-12-29T06:14:06;9.48;;;4.13;;
56075;SDS011;41951;49.022;12.066;2023-12-29T06:16:32;7.80;;;4.10;;
56075;SDS011;41951;49.022;12.066;2023-12-29T06:18:57;7.47;;;4.65;;
56075;SDS011;41951;49.022;12.066;2023-12-29T06:21:23;7.43;;;4.22;;
56075;SDS011;41951;49.022;12.066;2023-12-29T06:23:48;8.00;;;4.40;;
56075;SDS011;41951;49.022;12.066;2023-12-29T06:26:17;7.53;;;3.95;;
56075;SDS011;41951;49.022;12.066;2023-12-29T06:28:46;8.65;;;4.50;;
56075;SDS011;41951;49.022;12.066;2023-12-29T06:31:12;11.60;;;4.65;;
56075;SDS011;41951;49.022;12.066;2023-12-29T06:33:41;9.68;;;5.03;;
56075;SDS011;41951;49.022;12.066;2023-12-29T06:36:08;9.88;;;4.45;;
56075;SDS011;41951;49.022;12.066;2023-12-29T06:38:34;6.90;;;4.57;;
56075;SDS011;41951;49.022;12.066;2023-12-29T06:41:01;8.52;;;4.57;;
56075;SDS011;41951;49.022;12.066;2023-12-29T06:43:27;11.52;;;6.03;;
56075;SDS011;41951;49.022;12.066;2023-12-29T06:45:53;9.70;;;4.55;;
56075;SDS011;41951;49.022;12.066;2023-12-29T06:48:19;7.97;;;4.93;;
56075;SDS011;41951;49.022;12.066;2023-12-29T06:50:45;9.30;;;5.13;;
56075;SDS011;41951;49.022;12.066;2023-12-29T06:53:11;9.73;;;5.40;;
56075;SDS011;41951;49.022;12.066;2023-12-29T06:55:36;8.82;;;4.82;;
56075;SDS011;41951;49.022;12.066;2023-12-29T06:58:02;10.00;;;5.70;;
56075;SDS011;41951;49.022;12.066;2023-12-29T07:00:29;14.18;;;6.65;;
56075;SDS011;41951;49.022;12.066;2023-12-29T07:02:54;88.38;;;42.53;;
56075;SDS011;41951;49.022;12.066;2023-12-29T07:05:20;35.13;;;16.92;;
56075;SDS011;41951;49.022;12.066;2023-12-29T07:07:46;24.83;;;11.75;;
56075;SDS011;41951;49.022;12.066;2023-12-29T07:10:12;17.85;;;8.60;;
56075;SDS011;41951;49.022;12.066;2023-12-29T07:12:38;17.67;;;9.65;;
56075;SDS011;41951;49.022;12.066;2023-12-29T07:15:05;18.30;;;9.40;;
56075;SDS011;41951;49.022;12.066;2023-12-29T07:17:34;20.60;;;9.10;;
56075;SDS011;41951;49.022;12.066;2023-12-29T07:19:59;14.05;;;6.15;;
56075;SDS011;41951;49.022;12.066;2023-12-29T07:22:25;8.82;;;4.75;;
56075;SDS011;41951;49.022;12.066;2023-12-29T07:24:51;9.57;;;4.78;;
56075;SDS011;41951;49.022;12.066;2023-12-29T07:27:16;10.02;;;4.53;;
56075;SDS011;41951;49.022;12.066;2023-12-29T07:29:42;9.15;;;4.78;;
56075;SDS011;41951;49.022;12.066;2023-12-29T07:32:07;8.25;;;4.32;;
56075;SDS011;41951;49.022;12.066;2023-12-29T07:34:33;10.30;;;4.13;;
56075;SDS011;41951;49.022;12.066;2023-12-29T07:36:59;8.55;;;4.32;;
56075;SDS011;41951;49.022;12.066;2023-12-29T07:39:25;7.78;;;3.72;;
56075;SDS011;41951;49.022;12.066;2023-12-29T07:41:51;10.32;;;5.35;;
56075;SDS011;41951;49.022;12.066;2023-12-29T07:44:16;8.52;;;4.60;;
56075;SDS011;41951;49.022;12.066;2023-12-29T07:46:42;10.13;;;4.35;;
56075;SDS011;41951;49.022;12.066;2023-12-29T07:49:12;8.38;;;5.10;;
56075;SDS011;41951;49.022;12.066;2023-12-29T07:51:41;8.93;;;5.15;;
56075;SDS011;41951;49.022;12.066;2023-12-29T07:54:07;7.00;;;4.27;;
56075;SDS011;41951;49.022;12.066;2023-12-29T07:56:33;9.45;;;4.00;;
56075;SDS011;41951;49.022;12.066;2023-12-29T07:58:59;7.22;;;4.20;;
56075;SDS011;41951;49.022;12.066;2023-12-29T08:01:25;8.18;;;3.85;;
56075;SDS011;41951;49.022;12.066;2023-12-29T08:03:52;7.38;;;3.78;;
56075;SDS011;41951;49.022;12.066;2023-12-29T08:06:17;8.52;;;4.70;;
56075;SDS011;41951;49.022;12.066;2023-12-29T08:08:43;6.45;;;3.80;;
56075;SDS011;41951;49.022;12.066;2023-12-29T08:11:15;7.05;;;3.90;;
56075;SDS011;41951;49.022;12.066;2023-12-29T08:13:42;5.72;;;3.70;;
56075;SDS011;41951;49.022;12.066;2023-12-29T08:16:08;7.18;;;4.32;;
56075;SDS011;41951;49.022;12.066;2023-12-29T08:18:34;7.38;;;3.75;;
56075;SDS011;41951;49.022;12.066;2023-12-29T08:21:00;5.82;;;3.40;;
56075;SDS011;41951;49.022;12.066;2023-12-29T08:23:26;7.30;;;3.63;;
56075;SDS011;41951;49.022;12.066;2023-12-29T08:25:52;7.00;;;3.90;;
56075;SDS011;41951;49.022;12.066;2023-12-29T08:28:18;6.43;;;3.42;;
56075;SDS011;41951;49.022;12.066;2023-12-29T08:30:43;7.53;;;3.38;;
56075;SDS011;41951;49.022;12.066;2023-12-29T08:33:11;6.35;;;3.63;;
56075;SDS011;41951;49.022;12.066;2023-12-29T08:35:38;6.05;;;3.67;;
56075;SDS011;41951;49.022;12.066;2023-12-29T08:38:05;6.47;;;3.85;;
56075;SDS011;41951;49.022;12.066;2023-12-29T08:40:31;5.72;;;3.80;;
56075;SDS011;41951;49.022;12.066;2023-12-29T08:42:57;6.40;;;3.85;;
56075;SDS011;41951;49.022;12.066;2023-12-29T08:45:22;6.50;;;3.50;;
56075;SDS011;41951;49.022;12.066;2023-12-29T08:47:48;6.30;;;3.17;;
56075;SDS011;41951;49.022;12.066;2023-12-29T08:50:14;6.55;;;4.00;;
56075;SDS011;41951;49.022;12.066;2023-12-29T08:52:40;5.30;;;2.95;;
56075;SDS011;41951;49.022;12.066;2023-12-29T08:55:06;9.38;;;3.75;;
56075;SDS011;41951;49.022;12.066;2023-12-29T08:57:31;7.40;;;3.58;;
56075;SDS011;41951;49.022;12.066;2023-12-29T08:59:57;7.00;;;4.00;;
56075;SDS011;41951;49.022;12.066;2023-12-29T09:02:23;7.00;;;3.95;;
56075;SDS011;41951;49.022;12.066;2023-12-29T09:04:48;7.20;;;3.80;;
56075;SDS011;41951;49.022;12.066;2023-12-29T09:07:14;8.07;;;3.40;;
56075;SDS011;41951;49.022;12.066;2023-12-29T09:09:39;6.40;;;3.40;;
56075;SDS011;41951;49.022;12.066;2023-12-29T09:12:05;6.88;;;3.55;;
56075;SDS011;41951;49.022;12.066;2023-12-29T09:14:31;6.40;;;3.65;;
56075;SDS011;41951;49.022;12.066;2023-12-29T09:16:59;7.45;;;4.13;;
56075;SDS011;41951;49.022;12.066;2023-12-29T09:19:25;6.88;;;3.60;;
56075;SDS011;41951;49.022;12.066;2023-12-29T09:21:51;7.60;;;3.67;;
56075;SDS011;41951;49.022;12.066;2023-12-29T09:24:17;5.82;;;3.60;;
56075;SDS011;41951;49.022;12.066;2023-12-29T09:26:42;5.85;;;3.78;;
56075;SDS011;41951;49.022;12.066;2023-12-29T09:29:08;5.32;;;3.58;;
56075;SDS011;41951;49.022;12.066;2023-12-29T09:31:33;5.15;;;3.22;;
56075;SDS011;41951;49.022;12.066;2023-12-29T09:33:59;7.88;;;3.38;;
56075;SDS011;41951;49.022;12.066;2023-12-29T09:36:25;5.07;;;3.10;;
56075;SDS011;41951;49.022;12.066;2023-12-29T09:38:51;5.80;;;3.40;;
56075;SDS011;41951;49.022;12.066;2023-12-29T09:41:17;5.78;;;3.28;;
56075;SDS011;41951;49.022;12.066;2023-12-29T09:43:45;4.65;;;2.92;;
56075;SDS011;41951;49.022;12.066;2023-12-29T09:48:42;7.28;;;3.10;;
56075;SDS011;41951;49.022;12.066;2023-12-29T09:51:13;6.43;;;3.17;;
56075;SDS011;41951;49.022;12.066;2023-12-29T09:53:40;5.28;;;3.22;;
56075;SDS011;41951;49.022;12.066;2023-12-29T09:56:07;4.82;;;2.78;;
56075;SDS011;41951;49.022;12.066;2023-12-29T09:58:34;10.60;;;3.50;;
56075;SDS011;41951;49.022;12.066;2023-12-29T10:01:02;6.22;;;3.50;;
56075;SDS011;41951;49.022;12.066;2023-12-29T10:03:29;5.88;;;3.00;;
56075;SDS011;41951;49.022;12.066;2023-12-29T10:05:55;5.57;;;2.90;;
56075;SDS011;41951;49.022;12.066;2023-12-29T10:08:23;5.40;;;3.40;;
56075;SDS011;41951;49.022;12.066;2023-12-29T10:10:50;6.53;;;3.03;;
56075;SDS011;41951;49.022;12.066;2023-12-29T10:13:18;5.40;;;2.65;;
56075;SDS011;41951;49.022;12.066;2023-12-29T10:16:02;6.13;;;2.67;;
56075;SDS011;41951;49.022;12.066;2023-12-29T10:21:28;10.67;;;5.93;;
56075;SDS011;41951;49.022;12.066;2023-12-29T10:24:03;4.95;;;2.90;;
56075;SDS011;41951;49.022;12.066;2023-12-29T10:26:35;5.97;;;2.90;;
56075;SDS011;41951;49.022;12.066;2023-12-29T10:29:01;5.45;;;2.60;;
56075;SDS011;41951;49.022;12.066;2023-12-29T10:31:27;5.13;;;2.40;;
56075;SDS011;41951;49.022;12.066;2023-12-29T10:34:11;4.05;;;2.25;;
56075;SDS011;41951;49.022;12.066;2023-12-29T10:36:49;5.75;;;2.80;;
56075;SDS011;41951;49.022;12.066;2023-12-29T10:39:15;5.03;;;2.50;;
56075;SDS011;41951;49.022;12.066;2023-12-29T10:41:41;6.90;;;2.72;;
56075;SDS011;41951;49.022;12.066;2023-12-29T10:44:07;5.82;;;2.72;;
56075;SDS011;41951;49.022;12.066;2023-12-29T10:46:33;5.25;;;2.50;;
56075;SDS011;41951;49.022;12.066;2023-12-29T10:49:17;3.88;;;2.50;;
56075;SDS011;41951;49.022;12.066;2023-12-29T10:51:43;6.22;;;2.67;;
56075;SDS011;41951;49.022;12.066;2023-12-29T10:54:09;8.60;;;2.55;;
56075;SDS011;41951;49.022;12.066;2023-12-29T10:56:50;3.53;;;2.30;;
56075;SDS011;41951;49.022;12.066;2023-12-29T10:59:26;4.57;;;2.20;;
56075;SDS011;41951;49.022;12.066;2023-12-29T11:01:52;3.92;;;2.20;;
56075;SDS011;41951;49.022;12.066;2023-12-29T11:04:21;3.67;;;2.22;;
56075;SDS011;41951;49.022;12.066;2023-12-29T11:06:47;3.70;;;2.40;;
56075;SDS011;41951;49.022;12.066;2023-12-29T11:09:13;4.65;;;2.45;;
56075;SDS011;41951;49.022;12.066;2023-12-29T11:11:52;5.30;;;2.22;;
56075;SDS011;41951;49.022;12.066;2023-12-29T11:14:17;4.28;;;2.22;;
56075;SDS011;41951;49.022;12.066;2023-12-29T11:16:45;4.55;;;2.47;;
56075;SDS011;41951;49.022;12.066;2023-12-29T11:19:11;4.00;;;2.10;;
56075;SDS011;41951;49.022;12.066;2023-12-29T11:21:38;4.65;;;2.25;;
56075;SDS011;41951;49.022;12.066;2023-12-29T11:24:04;4.18;;;2.50;;
56075;SDS011;41951;49.022;12.066;2023-12-29T11:26:30;6.55;;;2.85;;
56075;SDS011;41951;49.022;12.066;2023-12-29T11:28:56;3.95;;;2.45;;
56075;SDS011;41951;49.022;12.066;2023-12-29T11:31:22;5.90;;;2.92;;
56075;SDS011;41951;49.022;12.066;2023-12-29T11:33:53;4.68;;;2.95;;
56075;SDS011;41951;49.022;12.066;2023-12-29T11:36:28;3.72;;;2.22;;
56075;SDS011;41951;49.022;12.066;2023-12-29T11:41:27;3.90;;;2.38;;
56075;SDS011;41951;49.022;12.066;2023-12-29T11:43:59;4.18;;;2.30;;
56075;SDS011;41951;49.022;12.066;2023-12-29T11:46:35;4.00;;;2.50;;
56075;SDS011;41951;49.022;12.066;2023-12-29T11:49:02;5.68;;;3.08;;
56075;SDS011;41951;49.022;12.066;2023-12-29T11:51:30;4.65;;;2.83;;
56075;SDS011;41951;49.022;12.066;2023-12-29T11:56:36;4.25;;;2.42;;
56075;SDS011;41951;49.022;12.066;2023-12-29T12:01:51;4.45;;;2.47;;
56075;SDS011;41951;49.022;12.066;2023-12-29T12:07:05;4.75;;;2.45;;
56075;SDS011;41951;49.022;12.066;2023-12-29T12:09:32;5.38;;;2.30;;
56075;SDS011;41951;49.022;12.066;2023-12-29T12:12:00;5.53;;;2.53;;
56075;SDS011;41951;49.022;12.066;2023-12-29T12:17:28;3.90;;;2.25;;
56075;SDS011;41951;49.022;12.066;2023-12-29T12:20:02;6.07;;;2.00;;
56075;SDS011;41951;49.022;12.066;2023-12-29T12:22:37;5.15;;;2.45;;
56075;SDS011;41951;49.022;12.066;2023-12-29T12:25:04;3.65;;;2.10;;
56075;SDS011;41951;49.022;12.066;2023-12-29T12:27:30;4.10;;;2.05;;
56075;SDS011;41951;49.022;12.066;2023-12-29T12:29:57;4.43;;;2.35;;
56075;SDS011;41951;49.022;12.066;2023-12-29T12:32:26;4.57;;;2.30;;
56075;SDS011;41951;49.022;12.066;2023-12-29T12:34:53;3.90;;;2.10;;
56075;SDS011;41951;49.022;12.066;2023-12-29T12:37:28;4.70;;;2.03;;
56075;SDS011;41951;49.022;12.066;2023-12-29T12:39:54;3.80;;;2.05;;
56075;SDS011;41951;49.022;12.066;2023-12-29T12:42:20;3.47;;;1.90;;
56075;SDS011;41951;49.022;12.066;2023-12-29T12:44:48;4.03;;;1.90;;
56075;SDS011;41951;49.022;12.066;2023-12-29T12:47:24;4.47;;;1.85;;
56075;SDS011;41951;49.022;12.066;2023-12-29T12:49:52;2.33;;;1.45;;
56075;SDS011;41951;49.022;12.066;2023-12-29T12:52:18;3.60;;;1.90;;
56075;SDS011;41951;49.022;12.066;2023-12-29T12:54:44;3.40;;;2.00;;
56075;SDS011;41951;49.022;12.066;2023-12-29T12:57:10;4.10;;;2.00;;
56075;SDS011;41951;49.022;12.066;2023-12-29T12:59:36;4.68;;;1.92;;
56075;SDS011;41951;49.022;12.066;2023-12-29T13:02:02;3.03;;;1.83;;
56075;SDS011;41951;49.022;12.066;2023-12-29T13:04:28;4.15;;;1.77;;
56075;SDS011;41951;49.022;12.066;2023-12-29T13:06:53;2.83;;;1.60;;
56075;SDS011;41951;49.022;12.066;2023-12-29T13:09:19;2.97;;;1.67;;
56075;SDS011;41951;49.022;12.066;2023-12-29T13:11:45;3.40;;;1.83;;
56075;SDS011;41951;49.022;12.066;2023-12-29T13:14:23;3.38;;;1.80;;
56075;SDS011;41951;49.022;12.066;2023-12-29T13:16:50;3.20;;;1.55;;
56075;SDS011;41951;49.022;12.066;2023-12-29T13:19:17;3.53;;;1.77;;
56075;SDS011;41951;49.022;12.066;2023-12-29T13:21:51;4.63;;;1.95;;
56075;SDS011;41951;49.022;12.066;2023-12-29T13:24:21;3.13;;;1.70;;
56075;SDS011;41951;49.022;12.066;2023-12-29T13:26:50;3.28;;;1.77;;
56075;SDS011;41951;49.022;12.066;2023-12-29T13:29:18;3.15;;;1.70;;
56075;SDS011;41951;49.022;12.066;2023-12-29T13:31:46;3.40;;;1.70;;
56075;SDS011;41951;49.022;12.066;2023-12-29T13:40:23;3.20;;;1.77;;
56075;SDS011;41951;49.022;12.066;2023-12-29T13:42:53;3.10;;;1.63;;
56075;SDS011;41951;49.022;12.066;2023-12-29T13:45:24;5.82;;;2.17;;
56075;SDS011;41951;49.022;12.066;2023-12-29T13:47:50;3.40;;;1.60;;
56075;SDS011;41951;49.022;12.066;2023-12-29T13:50:16;3.20;;;1.80;;
56075;SDS011;41951;49.022;12.066;2023-12-29T13:52:42;2.22;;;1.50;;
56075;SDS011;41951;49.022;12.066;2023-12-29T13:55:08;3.05;;;1.90;;
56075;SDS011;41951;49.022;12.066;2023-12-29T13:57:34;3.00;;;1.48;;
56075;SDS011;41951;49.022;12.066;2023-12-29T14:00:16;3.53;;;1.92;;
56075;SDS011;41951;49.022;12.066;2023-12-29T14:02:48;3.13;;;2.10;;
56075;SDS011;41951;49.022;12.066;2023-12-29T14:07:53;3.10;;;1.70;;
56075;SDS011;41951;49.022;12.066;2023-12-29T14:10:28;3.35;;;2.00;;
56075;SDS011;41951;49.022;12.066;2023-12-29T14:13:07;4.22;;;1.77;;
56075;SDS011;41951;49.022;12.066;2023-12-29T14:15:38;3.38;;;1.85;;
56075;SDS011;41951;49.022;12.066;2023-12-29T14:18:30;5.07;;;2.20;;
56075;SDS011;41951;49.022;12.066;2023-12-29T14:21:20;3.47;;;1.88;;
56075;SDS011;41951;49.022;12.066;2023-12-29T14:24:08;3.88;;;2.08;;
56075;SDS011;41951;49.022;12.066;2023-12-29T14:26:39;5.35;;;2.20;;
56075;SDS011;41951;49.022;12.066;2023-12-29T14:29:09;4.10;;;2.30;;
56075;SDS011;41951;49.022;12.066;2023-12-29T14:31:37;5.57;;;2.00;;
56075;SDS011;41951;49.022;12.066;2023-12-29T14:34:07;3.40;;;2.10;;
56075;SDS011;41951;49.022;12.066;2023-12-29T14:36:33;3.72;;;1.95;;
56075;SDS011;41951;49.022;12.066;2023-12-29T14:39:00;4.68;;;2.00;;
56075;SDS011;41951;49.022;12.066;2023-12-29T14:41:27;3.70;;;2.20;;
56075;SDS011;41951;49.022;12.066;2023-12-29T14:43:53;3.35;;;1.75;;
56075;SDS011;41951;49.022;12.066;2023-12-29T14:46:19;3.78;;;2.10;;
56075;SDS011;41951;49.022;12.066;2023-12-29T14:48:45;3.97;;;1.95;;
56075;SDS011;41951;49.022;12.066;2023-12-29T14:51:11;3.55;;;2.05;;
56075;SDS011;41951;49.022;12.066;2023-12-29T14:53:38;4.95;;;2.30;;
56075;SDS011;41951;49.022;12.066;2023-12-29T14:56:04;3.55;;;1.90;;
56075;SDS011;41951;49.022;12.066;2023-12-29T14:58:31;3.33;;;1.75;;
56075;SDS011;41951;49.022;12.066;2023-12-29T15:00:57;3.88;;;2.00;;
56075;SDS011;41951;49.022;12.066;2023-12-29T15:03:23;4.93;;;2.33;;